sensor_id;sensor_type;location;lat;lon;timestamp;P1;durP1;ratioP1;P2;durP2;ratioP2
67997;SDS011;54773;53.388;-1.504;2023-07-20T00:02:10;7.63;;;3.92;;
67997;SDS011;54773;53.388;-1.504;2023-07-20T00:04:54;6.32;;;3.60;;
67997;SDS011;54773;53.388;-1.504;2023-07-20T00:07:38;6.43;;;3.45;;
67997;SDS011;54773;53.388;-1.504;2023-07-20T00:10:22;7.60;;;3.77;;
67997;SDS011;54773;53.388;-1.504;2023-07-20T00:13:06;6.40;;;2.90;;
67997;SDS011;54773;53.388;-1.504;2023-07-20T00:15:51;5.30;;;2.90;;
67997;SDS011;54773;53.388;-1.504;2023-07-20T00:18:35;7.82;;;3.85;;
67997;SDS011;54773;53.388;-1.504;2023-07-20T00:21:19;6.27;;;3.30;;
67997;SDS011;54773;53.388;-1.504;2023-07-20T00:24:03;5.97;;;2.95;;
67997;SDS011;54773;53.388;-1.504;2023-07-20T00:26:47;6.30;;;3.10;;
67997;SDS011;54773;53.388;-1.504;2023-07-20T00:29:31;6.95;;;3.50;;
67997;SDS011;54773;53.388;-1.504;2023-07-20T00:32:15;8.20;;;4.35;;
67997;SDS011;54773;53.388;-1.504;2023-07-20T00:34:59;6.80;;;3.23;;
67997;SDS011;54773;53.388;-1.504;2023-07-20T00:37:43;6.50;;;3.00;;
67997;SDS011;54773;53.388;-1.504;2023-07-20T00:40:27;9.27;;;3.23;;
67997;SDS011;54773;53.388;-1.504;2023-07-20T00:43:11;7.23;;;2.90;;
67997;SDS011;54773;53.388;-1.504;2023-07-20T00:45:55;8.70;;;3.30;;
67997;SDS011;54773;53.388;-1.504;2023-07-20T00:48:39;6.65;;;2.72;;
67997;SDS011;54773;53.388;-1.504;2023-07-20T00:51:24;5.53;;;2.80;;
67997;SDS011;54773;53.388;-1.504;2023-07-20T00:56:53;5.72;;;2.85;;
67997;SDS011;54773;53.388;-1.504;2023-07-20T00:59:37;5.72;;;2.85;;
67997;SDS011;54773;53.388;-1.504;2023-07-20T01:02:21;5.90;;;3.00;;
67997;SDS011;54773;53.388;-1.504;2023-07-20T01:05:05;5.40;;;2.80;;
67997;SDS011;54773;53.388;-1.504;2023-07-20T01:07:52;6.78;;;3.33;;
67997;SDS011;54773;53.388;-1.504;2023-07-20T01:10:49;5.68;;;3.05;;
67997;SDS011;54773;53.388;-1.504;2023-07-20T01:13:37;6.13;;;3.17;;
67997;SDS011;54773;53.388;-1.504;2023-07-20T01:16:21;6.90;;;3.20;;
67997;SDS011;54773;53.388;-1.504;2023-07-20T01:19:05;5.30;;;2.87;;
67997;SDS011;54773;53.388;-1.504;2023-07-20T01:21:55;7.43;;;3.05;;
67997;SDS011;54773;53.388;-1.504;2023-07-20T01:27:52;7.22;;;3.10;;
67997;SDS011;54773;53.388;-1.504;2023-07-20T01:34:00;6.30;;;2.75;;
67997;SDS011;54773;53.388;-1.504;2023-07-20T01:36:46;5.50;;;2.90;;
67997;SDS011;54773;53.388;-1.504;2023-07-20T01:39:32;5.68;;;2.83;;
67997;SDS011;54773;53.388;-1.504;2023-07-20T01:42:17;8.38;;;3.20;;
67997;SDS011;54773;53.388;-1.504;2023-07-20T01:45:01;5.75;;;3.30;;
67997;SDS011;54773;53.388;-1.504;2023-07-20T01:47:45;7.28;;;2.95;;
67997;SDS011;54773;53.388;-1.504;2023-07-20T01:50:29;5.80;;;3.13;;
67997;SDS011;54773;53.388;-1.504;2023-07-20T01:53:13;7.38;;;3.38;;
67997;SDS011;54773;53.388;-1.504;2023-07-20T01:55:57;5.85;;;2.90;;
67997;SDS011;54773;53.388;-1.504;2023-07-20T01:58:42;6.03;;;3.83;;
67997;SDS011;54773;53.388;-1.504;2023-07-20T02:01:26;5.10;;;3.13;;
67997;SDS011;54773;53.388;-1.504;2023-07-20T02:04:12;7.13;;;3.67;;
67997;SDS011;54773;53.388;-1.504;2023-07-20T02:06:56;8.45;;;3.22;;
67997;SDS011;54773;53.388;-1.504;2023-07-20T02:09:40;4.90;;;3.20;;
67997;SDS011;54773;53.388;-1.504;2023-07-20T02:12:24;5.97;;;3.47;;
67997;SDS011;54773;53.388;-1.504;2023-07-20T02:15:08;6.57;;;3.60;;
67997;SDS011;54773;53.388;-1.504;2023-07-20T02:17:53;5.80;;;3.22;;
67997;SDS011;54773;53.388;-1.504;2023-07-20T02:20:37;6.22;;;3.42;;
67997;SDS011;54773;53.388;-1.504;2023-07-20T02:23:21;7.77;;;4.23;;
67997;SDS011;54773;53.388;-1.504;2023-07-20T02:26:05;8.67;;;3.70;;
67997;SDS011;54773;53.388;-1.504;2023-07-20T02:28:49;7.57;;;3.50;;
67997;SDS011;54773;53.388;-1.504;2023-07-20T02:31:34;7.50;;;3.10;;
67997;SDS011;54773;53.388;-1.504;2023-07-20T02:34:21;6.07;;;2.90;;
67997;SDS011;54773;53.388;-1.504;2023-07-20T02:37:05;6.20;;;3.50;;
67997;SDS011;54773;53.388;-1.504;2023-07-20T02:39:49;5.00;;;2.80;;
67997;SDS011;54773;53.388;-1.504;2023-07-20T02:42:33;6.03;;;2.80;;
67997;SDS011;54773;53.388;-1.504;2023-07-20T02:45:17;6.50;;;3.03;;
67997;SDS011;54773;53.388;-1.504;2023-07-20T02:48:02;5.93;;;3.17;;
67997;SDS011;54773;53.388;-1.504;2023-07-20T02:50:46;6.75;;;3.25;;
67997;SDS011;54773;53.388;-1.504;2023-07-20T02:53:30;6.18;;;3.10;;
67997;SDS011;54773;53.388;-1.504;2023-07-20T02:56:14;5.32;;;3.17;;
67997;SDS011;54773;53.388;-1.504;2023-07-20T02:59:00;4.90;;;3.15;;
67997;SDS011;54773;53.388;-1.504;2023-07-20T03:01:45;7.50;;;3.13;;
67997;SDS011;54773;53.388;-1.504;2023-07-20T03:04:29;10.33;;;3.43;;
67997;SDS011;54773;53.388;-1.504;2023-07-20T03:07:13;6.00;;;3.17;;
67997;SDS011;54773;53.388;-1.504;2023-07-20T03:09:57;8.13;;;3.28;;
67997;SDS011;54773;53.388;-1.504;2023-07-20T03:12:41;5.25;;;3.45;;
67997;SDS011;54773;53.388;-1.504;2023-07-20T03:15:25;7.53;;;3.80;;
67997;SDS011;54773;53.388;-1.504;2023-07-20T03:18:09;5.30;;;3.30;;
67997;SDS011;54773;53.388;-1.504;2023-07-20T03:20:53;6.68;;;3.60;;
67997;SDS011;54773;53.388;-1.504;2023-07-20T03:23:37;8.87;;;3.60;;
67997;SDS011;54773;53.388;-1.504;2023-07-20T03:26:21;5.97;;;3.22;;
67997;SDS011;54773;53.388;-1.504;2023-07-20T03:29:06;5.70;;;3.20;;
67997;SDS011;54773;53.388;-1.504;2023-07-20T03:31:50;5.45;;;3.50;;
67997;SDS011;54773;53.388;-1.504;2023-07-20T03:34:35;6.53;;;3.22;;
67997;SDS011;54773;53.388;-1.504;2023-07-20T03:37:19;7.25;;;3.30;;
67997;SDS011;54773;53.388;-1.504;2023-07-20T03:40:02;8.07;;;3.20;;
67997;SDS011;54773;53.388;-1.504;2023-07-20T03:42:48;7.70;;;3.17;;
67997;SDS011;54773;53.388;-1.504;2023-07-20T03:45:33;7.65;;;3.58;;
67997;SDS011;54773;53.388;-1.504;2023-07-20T03:48:18;11.57;;;3.38;;
67997;SDS011;54773;53.388;-1.504;2023-07-20T03:51:06;5.03;;;3.08;;
67997;SDS011;54773;53.388;-1.504;2023-07-20T03:53:50;6.95;;;3.50;;
67997;SDS011;54773;53.388;-1.504;2023-07-20T03:56:37;6.20;;;3.22;;
67997;SDS011;54773;53.388;-1.504;2023-07-20T03:59:23;9.65;;;3.60;;
67997;SDS011;54773;53.388;-1.504;2023-07-20T04:02:10;7.57;;;3.15;;
67997;SDS011;54773;53.388;-1.504;2023-07-20T04:04:57;6.30;;;3.63;;
67997;SDS011;54773;53.388;-1.504;2023-07-20T04:07:44;6.95;;;3.33;;
67997;SDS011;54773;53.388;-1.504;2023-07-20T04:10:28;5.67;;;3.00;;
67997;SDS011;54773;53.388;-1.504;2023-07-20T04:13:13;5.85;;;3.30;;
67997;SDS011;54773;53.388;-1.504;2023-07-20T04:16:00;8.70;;;4.18;;
67997;SDS011;54773;53.388;-1.504;2023-07-20T04:18:44;7.30;;;3.90;;
67997;SDS011;54773;53.388;-1.504;2023-07-20T04:21:28;8.67;;;4.20;;
67997;SDS011;54773;53.388;-1.504;2023-07-20T04:24:12;7.85;;;3.50;;
67997;SDS011;54773;53.388;-1.504;2023-07-20T04:26:56;5.90;;;3.33;;
67997;SDS011;54773;53.388;-1.504;2023-07-20T04:29:40;6.63;;;3.50;;
67997;SDS011;54773;53.388;-1.504;2023-07-20T04:32:24;7.93;;;3.60;;
67997;SDS011;54773;53.388;-1.504;2023-07-20T04:35:09;8.05;;;3.80;;
67997;SDS011;54773;53.388;-1.504;2023-07-20T04:37:52;9.00;;;4.37;;
67997;SDS011;54773;53.388;-1.504;2023-07-20T04:40:36;6.95;;;3.60;;
67997;SDS011;54773;53.388;-1.504;2023-07-20T04:43:20;7.03;;;3.93;;
67997;SDS011;54773;53.388;-1.504;2023-07-20T04:46:04;9.13;;;3.92;;
67997;SDS011;54773;53.388;-1.504;2023-07-20T04:48:48;7.28;;;4.32;;
67997;SDS011;54773;53.388;-1.504;2023-07-20T04:51:32;8.30;;;4.35;;
67997;SDS011;54773;53.388;-1.504;2023-07-20T04:54:16;8.00;;;4.20;;
67997;SDS011;54773;53.388;-1.504;2023-07-20T04:57:02;8.73;;;4.47;;
67997;SDS011;54773;53.388;-1.504;2023-07-20T04:59:46;8.15;;;4.47;;
67997;SDS011;54773;53.388;-1.504;2023-07-20T05:02:30;10.20;;;4.67;;
67997;SDS011;54773;53.388;-1.504;2023-07-20T05:05:14;8.83;;;4.53;;
67997;SDS011;54773;53.388;-1.504;2023-07-20T05:07:58;8.68;;;4.55;;
67997;SDS011;54773;53.388;-1.504;2023-07-20T05:10:42;9.48;;;4.80;;
67997;SDS011;54773;53.388;-1.504;2023-07-20T05:13:26;9.27;;;4.75;;
67997;SDS011;54773;53.388;-1.504;2023-07-20T05:16:10;9.53;;;5.37;;
67997;SDS011;54773;53.388;-1.504;2023-07-20T05:18:54;9.00;;;4.72;;
67997;SDS011;54773;53.388;-1.504;2023-07-20T05:21:39;9.70;;;5.28;;
67997;SDS011;54773;53.388;-1.504;2023-07-20T05:24:24;7.88;;;4.45;;
67997;SDS011;54773;53.388;-1.504;2023-07-20T05:27:08;10.20;;;4.90;;
67997;SDS011;54773;53.388;-1.504;2023-07-20T05:29:52;11.18;;;5.47;;
67997;SDS011;54773;53.388;-1.504;2023-07-20T05:32:36;11.37;;;5.67;;
67997;SDS011;54773;53.388;-1.504;2023-07-20T05:35:20;12.70;;;5.78;;
67997;SDS011;54773;53.388;-1.504;2023-07-20T05:38:04;9.07;;;5.03;;
67997;SDS011;54773;53.388;-1.504;2023-07-20T05:40:50;9.77;;;5.28;;
67997;SDS011;54773;53.388;-1.504;2023-07-20T05:43:43;10.43;;;5.32;;
67997;SDS011;54773;53.388;-1.504;2023-07-20T05:46:27;10.50;;;5.32;;
67997;SDS011;54773;53.388;-1.504;2023-07-20T05:49:12;9.82;;;5.15;;
67997;SDS011;54773;53.388;-1.504;2023-07-20T05:51:56;9.70;;;4.53;;
67997;SDS011;54773;53.388;-1.504;2023-07-20T05:54:40;10.60;;;5.18;;
67997;SDS011;54773;53.388;-1.504;2023-07-20T05:57:25;9.30;;;4.93;;
67997;SDS011;54773;53.388;-1.504;2023-07-20T06:00:09;8.73;;;4.97;;
67997;SDS011;54773;53.388;-1.504;2023-07-20T06:02:54;9.98;;;5.57;;
67997;SDS011;54773;53.388;-1.504;2023-07-20T06:05:38;9.52;;;5.07;;
67997;SDS011;54773;53.388;-1.504;2023-07-20T06:08:22;10.20;;;5.45;;
67997;SDS011;54773;53.388;-1.504;2023-07-20T06:11:06;11.13;;;5.60;;
67997;SDS011;54773;53.388;-1.504;2023-07-20T06:13:50;12.53;;;5.60;;
67997;SDS011;54773;53.388;-1.504;2023-07-20T06:16:34;11.75;;;5.78;;
67997;SDS011;54773;53.388;-1.504;2023-07-20T06:19:19;10.27;;;5.43;;
67997;SDS011;54773;53.388;-1.504;2023-07-20T06:22:03;11.30;;;5.27;;
67997;SDS011;54773;53.388;-1.504;2023-07-20T06:24:47;11.55;;;6.68;;
67997;SDS011;54773;53.388;-1.504;2023-07-20T06:27:31;13.70;;;5.93;;
67997;SDS011;54773;53.388;-1.504;2023-07-20T06:30:15;13.25;;;7.13;;
67997;SDS011;54773;53.388;-1.504;2023-07-20T06:32:59;12.73;;;6.60;;
67997;SDS011;54773;53.388;-1.504;2023-07-20T06:35:43;12.05;;;6.72;;
67997;SDS011;54773;53.388;-1.504;2023-07-20T06:38:27;11.23;;;6.77;;
67997;SDS011;54773;53.388;-1.504;2023-07-20T06:41:12;11.23;;;6.55;;
67997;SDS011;54773;53.388;-1.504;2023-07-20T06:43:56;12.13;;;6.43;;
67997;SDS011;54773;53.388;-1.504;2023-07-20T06:46:42;11.45;;;6.50;;
67997;SDS011;54773;53.388;-1.504;2023-07-20T06:49:26;12.00;;;6.40;;
67997;SDS011;54773;53.388;-1.504;2023-07-20T06:52:11;11.98;;;6.68;;
67997;SDS011;54773;53.388;-1.504;2023-07-20T06:54:56;12.85;;;6.43;;
67997;SDS011;54773;53.388;-1.504;2023-07-20T06:57:40;12.85;;;6.82;;
67997;SDS011;54773;53.388;-1.504;2023-07-20T07:00:24;14.48;;;7.13;;
67997;SDS011;54773;53.388;-1.504;2023-07-20T07:03:08;11.68;;;7.05;;
67997;SDS011;54773;53.388;-1.504;2023-07-20T07:05:54;14.95;;;7.63;;
67997;SDS011;54773;53.388;-1.504;2023-07-20T07:08:39;14.52;;;7.97;;
67997;SDS011;54773;53.388;-1.504;2023-07-20T07:11:25;11.75;;;7.40;;
67997;SDS011;54773;53.388;-1.504;2023-07-20T07:14:09;13.67;;;7.67;;
67997;SDS011;54773;53.388;-1.504;2023-07-20T07:16:53;15.27;;;7.10;;
67997;SDS011;54773;53.388;-1.504;2023-07-20T07:19:43;13.38;;;6.85;;
67997;SDS011;54773;53.388;-1.504;2023-07-20T07:22:28;12.82;;;7.53;;
67997;SDS011;54773;53.388;-1.504;2023-07-20T07:25:13;14.20;;;7.78;;
67997;SDS011;54773;53.388;-1.504;2023-07-20T07:27:56;16.37;;;7.93;;
67997;SDS011;54773;53.388;-1.504;2023-07-20T07:30:41;14.27;;;7.10;;
67997;SDS011;54773;53.388;-1.504;2023-07-20T07:33:25;14.27;;;7.60;;
67997;SDS011;54773;53.388;-1.504;2023-07-20T07:36:09;13.93;;;7.93;;
67997;SDS011;54773;53.388;-1.504;2023-07-20T07:38:53;11.70;;;7.33;;
67997;SDS011;54773;53.388;-1.504;2023-07-20T07:41:37;13.60;;;7.80;;
67997;SDS011;54773;53.388;-1.504;2023-07-20T07:44:21;12.23;;;7.93;;
67997;SDS011;54773;53.388;-1.504;2023-07-20T07:47:04;13.27;;;7.53;;
67997;SDS011;54773;53.388;-1.504;2023-07-20T07:49:48;14.00;;;7.33;;
67997;SDS011;54773;53.388;-1.504;2023-07-20T07:52:33;14.52;;;7.65;;
67997;SDS011;54773;53.388;-1.504;2023-07-20T07:55:17;11.00;;;6.47;;
67997;SDS011;54773;53.388;-1.504;2023-07-20T08:00:46;12.32;;;7.43;;
67997;SDS011;54773;53.388;-1.504;2023-07-20T08:03:35;10.48;;;5.60;;
67997;SDS011;54773;53.388;-1.504;2023-07-20T08:06:24;10.60;;;6.28;;
67997;SDS011;54773;53.388;-1.504;2023-07-20T08:09:08;9.85;;;5.72;;
67997;SDS011;54773;53.388;-1.504;2023-07-20T08:11:52;11.13;;;6.33;;
67997;SDS011;54773;53.388;-1.504;2023-07-20T08:14:42;10.27;;;5.72;;
67997;SDS011;54773;53.388;-1.504;2023-07-20T08:17:26;11.23;;;5.75;;
67997;SDS011;54773;53.388;-1.504;2023-07-20T08:20:12;8.63;;;5.88;;
67997;SDS011;54773;53.388;-1.504;2023-07-20T08:23:01;9.48;;;5.90;;
67997;SDS011;54773;53.388;-1.504;2023-07-20T08:25:48;10.23;;;6.25;;
67997;SDS011;54773;53.388;-1.504;2023-07-20T08:28:32;11.25;;;5.72;;
67997;SDS011;54773;53.388;-1.504;2023-07-20T08:31:17;9.57;;;5.72;;
67997;SDS011;54773;53.388;-1.504;2023-07-20T08:34:01;11.45;;;6.65;;
67997;SDS011;54773;53.388;-1.504;2023-07-20T08:36:48;10.77;;;5.93;;
67997;SDS011;54773;53.388;-1.504;2023-07-20T08:39:32;9.15;;;5.38;;
67997;SDS011;54773;53.388;-1.504;2023-07-20T08:42:18;10.95;;;6.07;;
67997;SDS011;54773;53.388;-1.504;2023-07-20T08:45:03;10.52;;;5.78;;
67997;SDS011;54773;53.388;-1.504;2023-07-20T08:47:50;9.35;;;5.50;;
67997;SDS011;54773;53.388;-1.504;2023-07-20T08:50:34;9.23;;;5.13;;
67997;SDS011;54773;53.388;-1.504;2023-07-20T08:53:19;10.20;;;5.50;;
67997;SDS011;54773;53.388;-1.504;2023-07-20T08:56:04;12.52;;;6.28;;
67997;SDS011;54773;53.388;-1.504;2023-07-20T08:58:49;10.55;;;5.63;;
67997;SDS011;54773;53.388;-1.504;2023-07-20T09:01:34;10.48;;;5.90;;
67997;SDS011;54773;53.388;-1.504;2023-07-20T09:04:21;9.85;;;5.72;;
67997;SDS011;54773;53.388;-1.504;2023-07-20T09:07:06;10.65;;;5.50;;
67997;SDS011;54773;53.388;-1.504;2023-07-20T09:09:50;9.88;;;5.63;;
67997;SDS011;54773;53.388;-1.504;2023-07-20T09:12:36;12.02;;;6.13;;
67997;SDS011;54773;53.388;-1.504;2023-07-20T09:15:21;10.40;;;6.10;;
67997;SDS011;54773;53.388;-1.504;2023-07-20T09:18:06;12.57;;;6.45;;
67997;SDS011;54773;53.388;-1.504;2023-07-20T09:20:50;11.25;;;6.50;;
67997;SDS011;54773;53.388;-1.504;2023-07-20T09:23:35;10.52;;;6.32;;
67997;SDS011;54773;53.388;-1.504;2023-07-20T09:26:20;9.45;;;5.95;;
67997;SDS011;54773;53.388;-1.504;2023-07-20T09:29:06;9.95;;;6.30;;
67997;SDS011;54773;53.388;-1.504;2023-07-20T09:32:01;9.93;;;5.93;;
67997;SDS011;54773;53.388;-1.504;2023-07-20T09:34:49;11.70;;;6.10;;
67997;SDS011;54773;53.388;-1.504;2023-07-20T09:37:35;9.73;;;5.72;;
67997;SDS011;54773;53.388;-1.504;2023-07-20T09:40:19;10.77;;;6.68;;
67997;SDS011;54773;53.388;-1.504;2023-07-20T09:43:06;11.27;;;6.03;;
67997;SDS011;54773;53.388;-1.504;2023-07-20T09:45:52;10.48;;;6.20;;
67997;SDS011;54773;53.388;-1.504;2023-07-20T09:48:54;10.98;;;6.28;;
67997;SDS011;54773;53.388;-1.504;2023-07-20T09:51:38;11.55;;;6.05;;
67997;SDS011;54773;53.388;-1.504;2023-07-20T09:54:23;11.57;;;6.45;;
67997;SDS011;54773;53.388;-1.504;2023-07-20T09:57:07;11.77;;;6.68;;
67997;SDS011;54773;53.388;-1.504;2023-07-20T09:59:52;12.57;;;7.18;;
67997;SDS011;54773;53.388;-1.504;2023-07-20T10:02:37;12.70;;;6.40;;
67997;SDS011;54773;53.388;-1.504;2023-07-20T10:05:28;12.27;;;6.68;;
67997;SDS011;54773;53.388;-1.504;2023-07-20T10:08:17;9.73;;;5.95;;
67997;SDS011;54773;53.388;-1.504;2023-07-20T10:11:03;12.10;;;5.72;;
67997;SDS011;54773;53.388;-1.504;2023-07-20T10:13:47;11.40;;;6.22;;
67997;SDS011;54773;53.388;-1.504;2023-07-20T10:16:35;10.93;;;6.07;;
67997;SDS011;54773;53.388;-1.504;2023-07-20T10:19:25;11.75;;;6.40;;
67997;SDS011;54773;53.388;-1.504;2023-07-20T10:22:17;13.23;;;6.80;;
67997;SDS011;54773;53.388;-1.504;2023-07-20T10:25:03;12.25;;;6.60;;
67997;SDS011;54773;53.388;-1.504;2023-07-20T10:27:48;10.65;;;5.85;;
67997;SDS011;54773;53.388;-1.504;2023-07-20T10:30:34;11.57;;;6.35;;
67997;SDS011;54773;53.388;-1.504;2023-07-20T10:33:20;9.68;;;6.32;;
67997;SDS011;54773;53.388;-1.504;2023-07-20T10:36:05;10.50;;;6.47;;
67997;SDS011;54773;53.388;-1.504;2023-07-20T10:38:53;11.45;;;6.88;;
67997;SDS011;54773;53.388;-1.504;2023-07-20T10:41:39;10.63;;;6.45;;
67997;SDS011;54773;53.388;-1.504;2023-07-20T10:44:26;11.13;;;6.18;;
67997;SDS011;54773;53.388;-1.504;2023-07-20T10:47:11;11.75;;;7.47;;
67997;SDS011;54773;53.388;-1.504;2023-07-20T10:50:00;10.15;;;6.40;;
67997;SDS011;54773;53.388;-1.504;2023-07-20T10:52:49;12.95;;;6.45;;
67997;SDS011;54773;53.388;-1.504;2023-07-20T10:55:49;11.77;;;6.50;;
67997;SDS011;54773;53.388;-1.504;2023-07-20T10:58:50;10.80;;;6.38;;
67997;SDS011;54773;53.388;-1.504;2023-07-20T11:01:35;10.52;;;6.57;;
67997;SDS011;54773;53.388;-1.504;2023-07-20T11:04:37;11.95;;;6.78;;
67997;SDS011;54773;53.388;-1.504;2023-07-20T11:07:38;12.23;;;7.45;;
67997;SDS011;54773;53.388;-1.504;2023-07-20T11:10:22;10.05;;;6.15;;
67997;SDS011;54773;53.388;-1.504;2023-07-20T11:13:17;10.32;;;6.40;;
67997;SDS011;54773;53.388;-1.504;2023-07-20T11:16:20;10.05;;;6.60;;
67997;SDS011;54773;53.388;-1.504;2023-07-20T11:19:22;11.98;;;6.95;;
67997;SDS011;54773;53.388;-1.504;2023-07-20T11:22:07;9.10;;;5.60;;
67997;SDS011;54773;53.388;-1.504;2023-07-20T11:24:57;10.23;;;5.60;;
67997;SDS011;54773;53.388;-1.504;2023-07-20T11:27:45;8.88;;;5.45;;
67997;SDS011;54773;53.388;-1.504;2023-07-20T11:30:32;9.02;;;5.72;;
67997;SDS011;54773;53.388;-1.504;2023-07-20T11:33:19;10.40;;;5.32;;
67997;SDS011;54773;53.388;-1.504;2023-07-20T11:36:03;10.35;;;5.53;;
67997;SDS011;54773;53.388;-1.504;2023-07-20T11:38:49;8.07;;;5.22;;
67997;SDS011;54773;53.388;-1.504;2023-07-20T11:41:33;8.35;;;5.35;;
67997;SDS011;54773;53.388;-1.504;2023-07-20T11:44:17;12.63;;;6.20;;
67997;SDS011;54773;53.388;-1.504;2023-07-20T11:47:02;7.40;;;5.10;;
67997;SDS011;54773;53.388;-1.504;2023-07-20T11:49:51;9.65;;;5.85;;
67997;SDS011;54773;53.388;-1.504;2023-07-20T11:52:37;7.95;;;5.15;;
67997;SDS011;54773;53.388;-1.504;2023-07-20T11:55:21;8.77;;;5.00;;
67997;SDS011;54773;53.388;-1.504;2023-07-20T11:58:07;9.80;;;5.10;;
67997;SDS011;54773;53.388;-1.504;2023-07-20T12:00:52;10.02;;;5.80;;
67997;SDS011;54773;53.388;-1.504;2023-07-20T12:03:36;9.23;;;5.28;;
67997;SDS011;54773;53.388;-1.504;2023-07-20T12:06:22;10.40;;;5.00;;
67997;SDS011;54773;53.388;-1.504;2023-07-20T12:09:07;8.75;;;4.72;;
67997;SDS011;54773;53.388;-1.504;2023-07-20T12:11:58;7.65;;;4.63;;
67997;SDS011;54773;53.388;-1.504;2023-07-20T12:14:42;7.22;;;4.75;;
67997;SDS011;54773;53.388;-1.504;2023-07-20T12:17:26;7.68;;;4.45;;
67997;SDS011;54773;53.388;-1.504;2023-07-20T12:53:05;6.78;;;4.22;;
67997;SDS011;54773;53.388;-1.504;2023-07-20T12:55:49;6.57;;;3.40;;
67997;SDS011;54773;53.388;-1.504;2023-07-20T12:58:33;6.65;;;3.65;;
67997;SDS011;54773;53.388;-1.504;2023-07-20T13:01:18;6.10;;;3.70;;
67997;SDS011;54773;53.388;-1.504;2023-07-20T13:04:02;6.85;;;3.67;;
67997;SDS011;54773;53.388;-1.504;2023-07-20T13:09:30;6.70;;;3.72;;
67997;SDS011;54773;53.388;-1.504;2023-07-20T13:12:14;6.47;;;3.70;;
67997;SDS011;54773;53.388;-1.504;2023-07-20T13:14:58;9.10;;;4.60;;
67997;SDS011;54773;53.388;-1.504;2023-07-20T13:17:44;7.05;;;3.95;;
67997;SDS011;54773;53.388;-1.504;2023-07-20T13:20:28;6.88;;;3.67;;
67997;SDS011;54773;53.388;-1.504;2023-07-20T13:23:13;7.63;;;3.95;;
67997;SDS011;54773;53.388;-1.504;2023-07-20T13:25:57;6.05;;;3.75;;
67997;SDS011;54773;53.388;-1.504;2023-07-20T13:28:42;6.22;;;3.90;;
67997;SDS011;54773;53.388;-1.504;2023-07-20T13:31:26;5.72;;;3.85;;
67997;SDS011;54773;53.388;-1.504;2023-07-20T13:34:10;7.57;;;4.10;;
67997;SDS011;54773;53.388;-1.504;2023-07-20T13:36:53;5.32;;;3.53;;
67997;SDS011;54773;53.388;-1.504;2023-07-20T13:39:37;7.32;;;3.55;;
67997;SDS011;54773;53.388;-1.504;2023-07-20T13:42:22;6.45;;;3.70;;
67997;SDS011;54773;53.388;-1.504;2023-07-20T13:45:06;8.23;;;3.40;;
67997;SDS011;54773;53.388;-1.504;2023-07-20T13:47:51;6.13;;;3.92;;
67997;SDS011;54773;53.388;-1.504;2023-07-20T13:50:35;5.53;;;3.45;;
67997;SDS011;54773;53.388;-1.504;2023-07-20T13:53:19;6.43;;;3.70;;
67997;SDS011;54773;53.388;-1.504;2023-07-20T13:56:02;5.05;;;3.05;;
67997;SDS011;54773;53.388;-1.504;2023-07-20T13:58:48;5.47;;;3.38;;
67997;SDS011;54773;53.388;-1.504;2023-07-20T14:01:32;5.63;;;3.47;;
67997;SDS011;54773;53.388;-1.504;2023-07-20T14:04:17;7.07;;;3.13;;
67997;SDS011;54773;53.388;-1.504;2023-07-20T14:09:46;5.93;;;3.20;;
67997;SDS011;54773;53.388;-1.504;2023-07-20T14:12:30;5.82;;;3.38;;
67997;SDS011;54773;53.388;-1.504;2023-07-20T14:15:17;5.93;;;3.05;;
67997;SDS011;54773;53.388;-1.504;2023-07-20T14:18:03;7.05;;;3.60;;
67997;SDS011;54773;53.388;-1.504;2023-07-20T14:20:50;7.85;;;3.35;;
67997;SDS011;54773;53.388;-1.504;2023-07-20T14:23:35;6.75;;;3.40;;
67997;SDS011;54773;53.388;-1.504;2023-07-20T14:26:20;6.45;;;3.70;;
67997;SDS011;54773;53.388;-1.504;2023-07-20T14:29:04;6.30;;;3.60;;
67997;SDS011;54773;53.388;-1.504;2023-07-20T14:31:48;5.78;;;2.67;;
67997;SDS011;54773;53.388;-1.504;2023-07-20T14:34:34;5.00;;;3.03;;
67997;SDS011;54773;53.388;-1.504;2023-07-20T14:37:18;4.72;;;2.70;;
67997;SDS011;54773;53.388;-1.504;2023-07-20T14:40:02;5.32;;;2.85;;
67997;SDS011;54773;53.388;-1.504;2023-07-20T14:42:48;5.85;;;3.17;;
67997;SDS011;54773;53.388;-1.504;2023-07-20T14:45:32;6.75;;;2.85;;
67997;SDS011;54773;53.388;-1.504;2023-07-20T14:48:16;6.15;;;3.20;;
67997;SDS011;54773;53.388;-1.504;2023-07-20T14:51:00;5.57;;;3.17;;
67997;SDS011;54773;53.388;-1.504;2023-07-20T14:53:44;6.13;;;3.25;;
67997;SDS011;54773;53.388;-1.504;2023-07-20T14:56:28;6.68;;;3.63;;
67997;SDS011;54773;53.388;-1.504;2023-07-20T14:59:13;5.15;;;3.13;;
67997;SDS011;54773;53.388;-1.504;2023-07-20T15:01:57;7.30;;;3.38;;
67997;SDS011;54773;53.388;-1.504;2023-07-20T15:04:50;7.20;;;3.13;;
67997;SDS011;54773;53.388;-1.504;2023-07-20T15:07:34;5.68;;;3.15;;
67997;SDS011;54773;53.388;-1.504;2023-07-20T15:13:03;8.10;;;3.30;;
67997;SDS011;54773;53.388;-1.504;2023-07-20T15:18:33;5.05;;;2.70;;
67997;SDS011;54773;53.388;-1.504;2023-07-20T15:21:16;7.15;;;3.13;;
67997;SDS011;54773;53.388;-1.504;2023-07-20T15:24:01;4.90;;;2.80;;
67997;SDS011;54773;53.388;-1.504;2023-07-20T15:26:46;6.97;;;3.28;;
67997;SDS011;54773;53.388;-1.504;2023-07-20T15:29:30;6.00;;;2.88;;
67997;SDS011;54773;53.388;-1.504;2023-07-20T15:32:15;5.88;;;3.35;;
67997;SDS011;54773;53.388;-1.504;2023-07-20T15:35:02;7.15;;;3.20;;
67997;SDS011;54773;53.388;-1.504;2023-07-20T15:37:47;6.57;;;3.42;;
67997;SDS011;54773;53.388;-1.504;2023-07-20T15:40:32;8.60;;;3.40;;
67997;SDS011;54773;53.388;-1.504;2023-07-20T15:43:16;8.32;;;3.72;;
67997;SDS011;54773;53.388;-1.504;2023-07-20T15:46:02;8.10;;;3.90;;
67997;SDS011;54773;53.388;-1.504;2023-07-20T15:49:06;5.75;;;3.55;;
67997;SDS011;54773;53.388;-1.504;2023-07-20T15:51:51;7.22;;;3.72;;
67997;SDS011;54773;53.388;-1.504;2023-07-20T15:54:35;6.97;;;3.80;;
67997;SDS011;54773;53.388;-1.504;2023-07-20T15:57:19;7.00;;;3.53;;
67997;SDS011;54773;53.388;-1.504;2023-07-20T16:00:04;5.53;;;3.38;;
67997;SDS011;54773;53.388;-1.504;2023-07-20T16:02:52;4.90;;;3.20;;
67997;SDS011;54773;53.388;-1.504;2023-07-20T16:05:37;7.35;;;3.45;;
67997;SDS011;54773;53.388;-1.504;2023-07-20T16:08:22;8.45;;;3.90;;
67997;SDS011;54773;53.388;-1.504;2023-07-20T16:11:06;5.72;;;3.25;;
67997;SDS011;54773;53.388;-1.504;2023-07-20T16:13:50;6.03;;;3.35;;
67997;SDS011;54773;53.388;-1.504;2023-07-20T16:16:36;7.38;;;3.72;;
67997;SDS011;54773;53.388;-1.504;2023-07-20T16:19:20;7.07;;;2.90;;
67997;SDS011;54773;53.388;-1.504;2023-07-20T16:22:05;7.93;;;3.22;;
67997;SDS011;54773;53.388;-1.504;2023-07-20T16:24:49;6.78;;;3.45;;
67997;SDS011;54773;53.388;-1.504;2023-07-20T16:27:34;5.88;;;2.97;;
67997;SDS011;54773;53.388;-1.504;2023-07-20T16:30:18;6.70;;;3.20;;
67997;SDS011;54773;53.388;-1.504;2023-07-20T16:33:02;8.32;;;3.55;;
67997;SDS011;54773;53.388;-1.504;2023-07-20T16:35:47;6.60;;;3.40;;
67997;SDS011;54773;53.388;-1.504;2023-07-20T16:38:31;7.20;;;3.33;;
67997;SDS011;54773;53.388;-1.504;2023-07-20T16:41:15;5.88;;;2.75;;
67997;SDS011;54773;53.388;-1.504;2023-07-20T16:44:02;5.18;;;3.25;;
67997;SDS011;54773;53.388;-1.504;2023-07-20T16:46:47;6.47;;;3.42;;
67997;SDS011;54773;53.388;-1.504;2023-07-20T16:52:17;5.60;;;2.80;;
67997;SDS011;54773;53.388;-1.504;2023-07-20T16:55:01;5.68;;;2.88;;
67997;SDS011;54773;53.388;-1.504;2023-07-20T16:57:45;4.97;;;2.72;;
67997;SDS011;54773;53.388;-1.504;2023-07-20T17:00:31;5.32;;;3.13;;
67997;SDS011;54773;53.388;-1.504;2023-07-20T17:05:59;5.03;;;3.10;;
67997;SDS011;54773;53.388;-1.504;2023-07-20T17:08:47;6.82;;;3.20;;
67997;SDS011;54773;53.388;-1.504;2023-07-20T17:11:31;6.32;;;3.20;;
67997;SDS011;54773;53.388;-1.504;2023-07-20T17:14:15;6.22;;;3.47;;
67997;SDS011;54773;53.388;-1.504;2023-07-20T17:17:01;7.07;;;4.55;;
67997;SDS011;54773;53.388;-1.504;2023-07-20T17:19:45;9.55;;;4.47;;